createdAt,value
2017-11-26T00:00:38.413Z,0.00
2017-11-26T00:01:38.416Z,0.00
2017-11-26T00:02:38.418Z,0.00
2017-11-26T00:03:38.422Z,0.00
2017-11-26T00:04:38.424Z,0.00
2017-11-26T00:05:38.427Z,0.00
2017-11-26T00:06:38.429Z,0.00
2017-11-26T00:07:38.433Z,0.00
2017-11-26T00:08:38.436Z,0.00
2017-11-26T00:09:38.438Z,0.00
2017-11-26T00:10:38.440Z,0.00
2017-11-26T00:11:38.442Z,0.00
2017-11-26T00:12:38.456Z,0.00
2017-11-26T00:13:38.449Z,0.00
2017-11-26T00:14:38.451Z,0.00
2017-11-26T00:15:38.456Z,0.00
2017-11-26T00:16:38.465Z,0.00
2017-11-26T00:17:38.465Z,0.00
2017-11-26T00:18:38.467Z,0.00
2017-11-26T00:19:38.470Z,0.00
2017-11-26T00:20:38.469Z,0.00
2017-11-26T00:21:38.472Z,0.00
2017-11-26T00:22:38.474Z,0.00
2017-11-26T00:23:38.476Z,0.00
2017-11-26T00:24:38.497Z,0.00
2017-11-26T00:25:38.482Z,0.00
2017-11-26T00:26:38.486Z,0.00
2017-11-26T00:27:38.489Z,0.00
2017-11-26T00:28:38.492Z,0.00
2017-11-26T00:29:38.494Z,0.00
2017-11-26T00:30:38.497Z,0.00
2017-11-26T00:31:38.530Z,0.00
2017-11-26T00:32:38.503Z,0.00
2017-11-26T00:33:38.506Z,0.00
2017-11-26T00:34:38.512Z,0.00
2017-11-26T00:35:38.511Z,0.00
2017-11-26T00:36:38.514Z,0.00
2017-11-26T00:37:38.516Z,0.00
2017-11-26T00:38:38.519Z,0.00
2017-11-26T00:39:38.521Z,0.00
2017-11-26T00:40:38.526Z,0.00
2017-11-26T00:41:38.526Z,0.00
2017-11-26T00:42:38.530Z,0.00
2017-11-26T00:43:38.533Z,0.00
2017-11-26T00:44:38.536Z,0.00
2017-11-26T00:45:38.538Z,0.00
2017-11-26T00:46:38.540Z,0.00
2017-11-26T00:47:38.544Z,0.00
2017-11-26T00:48:38.548Z,0.00
2017-11-26T00:49:38.548Z,0.00
2017-11-26T00:50:38.553Z,0.00
2017-11-26T00:51:38.554Z,0.00
2017-11-26T00:52:38.557Z,0.00
2017-11-26T00:53:38.564Z,0.00
2017-11-26T00:54:38.562Z,0.00
2017-11-26T00:55:38.566Z,0.00
2017-11-26T00:56:38.569Z,0.00
2017-11-26T00:57:38.571Z,0.00
2017-11-26T00:58:38.573Z,0.00
2017-11-26T00:59:38.579Z,0.00
2017-11-26T01:00:38.581Z,0.00
2017-11-26T01:01:38.585Z,0.00
2017-11-26T01:02:38.586Z,0.00
2017-11-26T01:03:38.587Z,0.00
2017-11-26T01:04:38.591Z,0.00
2017-11-26T01:05:38.595Z,0.00
2017-11-26T01:06:38.596Z,0.00
2017-11-26T01:07:38.598Z,0.00
2017-11-26T01:08:38.603Z,0.00
2017-11-26T01:09:38.602Z,0.00
2017-11-26T01:10:38.606Z,0.00
2017-11-26T01:11:38.608Z,0.00
2017-11-26T01:12:38.611Z,0.00
2017-11-26T01:13:38.623Z,0.00
2017-11-26T01:14:38.618Z,0.00
2017-11-26T01:15:38.619Z,0.00
2017-11-26T01:16:38.622Z,0.00
2017-11-26T01:17:38.625Z,0.00
2017-11-26T01:18:38.628Z,0.00
2017-11-26T01:19:38.630Z,0.00
2017-11-26T01:20:38.634Z,0.00
2017-11-26T01:21:38.639Z,0.00
2017-11-26T01:22:38.642Z,0.00
2017-11-26T01:23:38.640Z,0.00
2017-11-26T01:24:38.648Z,0.00
2017-11-26T01:25:38.646Z,0.00
2017-11-26T01:26:38.648Z,0.00
2017-11-26T01:27:38.650Z,0.00
2017-11-26T01:28:38.660Z,0.00
2017-11-26T01:29:38.656Z,0.00
2017-11-26T01:30:38.659Z,0.00
2017-11-26T01:31:38.662Z,0.00
2017-11-26T01:32:38.665Z,0.00
2017-11-26T01:33:38.667Z,0.00
2017-11-26T01:34:38.669Z,0.00
2017-11-26T01:35:38.673Z,0.00
2017-11-26T01:36:38.676Z,0.00
2017-11-26T01:37:38.677Z,0.00
2017-11-26T01:38:38.688Z,0.00
2017-11-26T01:39:38.684Z,0.00
2017-11-26T01:40:38.686Z,0.00
2017-11-26T01:41:38.689Z,0.00
2017-11-26T01:42:38.699Z,0.00
2017-11-26T01:43:38.694Z,0.00
2017-11-26T01:44:38.697Z,0.00
2017-11-26T01:45:38.699Z,0.00
2017-11-26T01:46:38.704Z,0.00
2017-11-26T01:47:38.704Z,0.00
2017-11-26T01:48:38.706Z,0.00
2017-11-26T01:49:38.709Z,0.00
2017-11-26T01:50:38.712Z,0.00
2017-11-26T01:51:38.716Z,0.00
2017-11-26T01:52:38.718Z,0.00
2017-11-26T01:53:38.722Z,0.00
2017-11-26T01:54:38.727Z,0.00
2017-11-26T01:55:38.733Z,0.00
2017-11-26T01:56:38.731Z,0.00
2017-11-26T01:57:38.730Z,0.00
2017-11-26T01:58:38.736Z,0.00
2017-11-26T01:59:38.737Z,0.00
2017-11-26T02:00:38.740Z,0.00
2017-11-26T02:01:38.744Z,0.00
2017-11-26T02:02:38.748Z,0.00
2017-11-26T02:03:38.746Z,0.00
2017-11-26T02:04:38.749Z,0.00
2017-11-26T02:05:38.756Z,0.00
2017-11-26T02:06:38.755Z,0.00
2017-11-26T02:07:38.757Z,0.00
2017-11-26T02:08:38.759Z,0.00
2017-11-26T02:09:38.763Z,0.00
2017-11-26T02:10:38.766Z,0.00
2017-11-26T02:11:38.767Z,0.00
2017-11-26T02:12:38.769Z,0.00
2017-11-26T02:13:38.774Z,0.00
2017-11-26T02:14:38.775Z,0.00
2017-11-26T02:15:38.779Z,0.00
2017-11-26T02:16:38.780Z,0.00
2017-11-26T02:17:38.782Z,0.00
2017-11-26T02:18:38.785Z,0.00
2017-11-26T02:19:38.788Z,0.00
2017-11-26T02:20:38.790Z,0.00
2017-11-26T02:21:38.793Z,0.00
2017-11-26T02:22:38.795Z,0.00
2017-11-26T02:23:38.798Z,0.00
2017-11-26T02:24:38.801Z,0.00
2017-11-26T02:25:38.803Z,0.00
2017-11-26T02:26:38.806Z,0.00
2017-11-26T02:27:38.809Z,0.00
2017-11-26T02:28:38.812Z,0.00
2017-11-26T02:29:38.813Z,0.00
2017-11-26T02:30:38.816Z,0.00
2017-11-26T02:31:38.818Z,0.00
2017-11-26T02:32:38.823Z,0.00
2017-11-26T02:33:38.824Z,0.00
2017-11-26T02:34:38.826Z,0.00
2017-11-26T02:35:38.829Z,0.00
2017-11-26T02:36:38.832Z,0.00
2017-11-26T02:37:38.841Z,0.00
2017-11-26T02:38:38.836Z,0.00
2017-11-26T02:39:38.848Z,0.00
2017-11-26T02:40:38.843Z,0.00
2017-11-26T02:41:38.845Z,0.00
2017-11-26T02:42:38.846Z,0.00
2017-11-26T02:43:38.850Z,0.00
2017-11-26T02:44:38.853Z,0.00
2017-11-26T02:45:38.855Z,0.00
2017-11-26T02:46:38.861Z,0.00
2017-11-26T02:47:38.859Z,0.00
2017-11-26T02:48:38.864Z,0.00
2017-11-26T02:49:38.865Z,0.00
2017-11-26T02:50:38.870Z,0.00
2017-11-26T02:51:38.871Z,0.00
2017-11-26T02:52:38.873Z,0.00
2017-11-26T02:53:38.874Z,0.00
2017-11-26T02:54:38.878Z,0.00
2017-11-26T02:55:38.880Z,0.00
2017-11-26T02:56:38.883Z,0.00
2017-11-26T02:57:38.885Z,0.00
2017-11-26T02:58:38.887Z,0.00
2017-11-26T02:59:38.899Z,0.00
2017-11-26T03:00:38.895Z,0.00
2017-11-26T03:01:38.896Z,0.00
2017-11-26T03:02:38.902Z,0.00
2017-11-26T03:03:38.901Z,0.00
2017-11-26T03:04:38.904Z,0.00
2017-11-26T03:05:38.906Z,0.00
2017-11-26T03:06:38.915Z,0.00
2017-11-26T03:07:38.910Z,0.00
2017-11-26T03:08:38.912Z,0.00
2017-11-26T03:09:38.922Z,0.00
2017-11-26T03:10:38.919Z,0.00
2017-11-26T03:11:38.921Z,0.00
2017-11-26T03:12:38.923Z,0.00
2017-11-26T03:13:38.931Z,0.00
2017-11-26T03:14:38.934Z,0.00
2017-11-26T03:15:38.930Z,0.00
2017-11-26T03:16:38.933Z,0.00
2017-11-26T03:17:38.938Z,0.00
2017-11-26T03:18:38.939Z,0.00
2017-11-26T03:19:38.943Z,0.00
2017-11-26T03:20:38.944Z,0.00
2017-11-26T03:21:38.948Z,0.00
2017-11-26T03:22:38.948Z,0.00
2017-11-26T03:23:38.952Z,0.00
2017-11-26T03:24:38.956Z,0.00
2017-11-26T03:25:38.957Z,0.00
2017-11-26T03:26:38.957Z,0.00
2017-11-26T03:27:38.966Z,0.00
2017-11-26T03:28:38.965Z,0.00
2017-11-26T03:29:38.967Z,0.00
2017-11-26T03:30:38.971Z,0.00
2017-11-26T03:31:38.977Z,0.00
2017-11-26T03:32:38.974Z,0.00
2017-11-26T03:33:38.977Z,0.00
2017-11-26T03:34:38.979Z,0.00
2017-11-26T03:35:38.982Z,0.00
2017-11-26T03:36:38.990Z,0.00
2017-11-26T03:37:38.988Z,0.00
2017-11-26T03:38:38.994Z,0.00
2017-11-26T03:39:38.992Z,0.00
2017-11-26T03:40:38.995Z,0.00
2017-11-26T03:41:38.996Z,0.00
2017-11-26T03:42:38.999Z,0.00
2017-11-26T03:43:39.008Z,0.00
2017-11-26T03:44:39.006Z,0.00
2017-11-26T03:45:39.014Z,0.00
2017-11-26T03:46:39.017Z,0.00
2017-11-26T03:47:39.017Z,0.00
2017-11-26T03:48:39.019Z,0.00
2017-11-26T03:49:39.018Z,0.00
2017-11-26T03:50:39.020Z,0.00
2017-11-26T03:51:39.022Z,0.00
2017-11-26T03:52:39.024Z,0.00
2017-11-26T03:53:39.027Z,0.00
2017-11-26T03:54:39.030Z,0.00
2017-11-26T03:55:39.032Z,0.00
2017-11-26T03:56:39.035Z,0.00
2017-11-26T03:57:39.036Z,0.00
2017-11-26T03:58:39.039Z,0.00
2017-11-26T03:59:39.042Z,0.00
2017-11-26T04:00:39.044Z,0.00
2017-11-26T04:01:39.047Z,0.00
2017-11-26T04:02:39.049Z,0.00
2017-11-26T04:03:39.053Z,0.00
2017-11-26T04:04:39.056Z,0.00
2017-11-26T04:05:39.057Z,0.00
2017-11-26T04:06:39.060Z,0.00
2017-11-26T04:07:39.062Z,0.00
2017-11-26T04:08:39.076Z,0.00
2017-11-26T04:09:39.072Z,0.00
2017-11-26T04:10:39.070Z,0.00
2017-11-26T04:11:39.072Z,0.00
2017-11-26T04:12:39.077Z,0.00
2017-11-26T04:13:39.078Z,0.00
2017-11-26T04:14:39.080Z,0.00
2017-11-26T04:15:39.082Z,0.00
2017-11-26T04:16:39.091Z,0.00
2017-11-26T04:17:39.100Z,0.00
2017-11-26T04:18:39.096Z,0.00
2017-11-26T04:19:39.098Z,0.00
2017-11-26T04:20:39.100Z,0.00
2017-11-26T04:21:39.099Z,0.00
2017-11-26T04:22:39.103Z,0.00
2017-11-26T04:23:39.106Z,0.00
2017-11-26T04:24:39.106Z,0.00
2017-11-26T04:25:39.110Z,0.00
2017-11-26T04:26:39.109Z,0.00
2017-11-26T04:27:39.113Z,0.00
2017-11-26T04:28:39.115Z,0.00
2017-11-26T04:29:39.117Z,0.00
2017-11-26T04:30:39.121Z,0.00
2017-11-26T04:31:39.123Z,0.00
2017-11-26T04:32:39.126Z,0.00
2017-11-26T04:33:39.129Z,0.00
2017-11-26T04:34:39.132Z,0.00
2017-11-26T04:35:39.139Z,0.00
2017-11-26T04:36:39.137Z,0.00
2017-11-26T04:37:39.139Z,0.00
2017-11-26T04:38:39.156Z,0.00
2017-11-26T04:39:39.144Z,0.00
2017-11-26T04:40:39.147Z,0.00
2017-11-26T04:41:39.148Z,0.00
2017-11-26T04:42:39.151Z,0.00
2017-11-26T04:43:39.156Z,0.00
2017-11-26T04:44:39.157Z,0.00
2017-11-26T04:45:39.163Z,0.00
2017-11-26T04:46:39.162Z,0.00
2017-11-26T04:47:39.164Z,0.00
2017-11-26T04:48:39.169Z,0.00
2017-11-26T04:49:39.167Z,0.00
2017-11-26T04:50:39.172Z,0.00
2017-11-26T04:51:39.174Z,0.00
2017-11-26T04:52:39.179Z,0.00
2017-11-26T04:53:39.180Z,0.00
2017-11-26T04:54:39.186Z,0.00
2017-11-26T04:55:39.186Z,0.00
2017-11-26T04:56:39.189Z,0.00
2017-11-26T04:57:39.189Z,0.00
2017-11-26T04:58:39.192Z,0.00
2017-11-26T04:59:39.195Z,0.00
2017-11-26T05:00:39.197Z,0.00
2017-11-26T05:01:39.200Z,0.00
2017-11-26T05:02:39.203Z,0.00
2017-11-26T05:03:39.205Z,0.00
2017-11-26T05:04:39.209Z,0.00
2017-11-26T05:05:39.210Z,0.00
2017-11-26T05:06:39.212Z,0.00
2017-11-26T05:07:39.216Z,0.00
2017-11-26T05:08:39.220Z,0.00
2017-11-26T05:09:39.221Z,0.00
2017-11-26T05:10:39.224Z,0.00
2017-11-26T05:11:39.226Z,0.00
2017-11-26T05:12:39.230Z,0.00
2017-11-26T05:13:39.231Z,0.00
2017-11-26T05:14:39.240Z,0.00
2017-11-26T05:15:39.246Z,0.00
2017-11-26T05:16:39.245Z,0.00
2017-11-26T05:17:39.242Z,0.00
2017-11-26T05:18:39.245Z,0.00
2017-11-26T05:19:39.255Z,0.00
2017-11-26T05:20:39.251Z,0.00
2017-11-26T05:21:39.252Z,0.00
2017-11-26T05:22:39.257Z,0.00
2017-11-26T05:23:39.258Z,0.00
2017-11-26T05:24:39.262Z,0.00
2017-11-26T05:25:39.265Z,0.00
2017-11-26T05:26:39.265Z,0.00
2017-11-26T05:27:39.270Z,0.00
2017-11-26T05:28:39.271Z,0.00
2017-11-26T05:29:39.274Z,0.00
2017-11-26T05:30:39.276Z,0.00
2017-11-26T05:31:39.284Z,0.00
2017-11-26T05:32:39.290Z,0.00
2017-11-26T05:33:39.284Z,0.00
2017-11-26T05:34:39.292Z,0.00
2017-11-26T05:35:39.290Z,0.00
2017-11-26T05:36:39.292Z,0.00
2017-11-26T05:37:39.294Z,0.00
2017-11-26T05:38:39.305Z,0.00
2017-11-26T05:39:39.300Z,0.00
2017-11-26T05:40:39.304Z,0.00
2017-11-26T05:41:39.305Z,0.00
2017-11-26T05:42:39.310Z,0.00
2017-11-26T05:43:39.312Z,0.00
2017-11-26T05:44:39.315Z,0.00
2017-11-26T05:45:39.316Z,0.00
2017-11-26T05:46:39.321Z,0.00
2017-11-26T05:47:39.322Z,0.00
2017-11-26T05:48:39.325Z,0.00
2017-11-26T05:49:39.325Z,0.00
2017-11-26T05:50:39.330Z,0.00
2017-11-26T05:51:39.332Z,0.00
2017-11-26T05:52:39.344Z,0.00
2017-11-26T05:53:39.336Z,0.00
2017-11-26T05:54:39.340Z,0.00
2017-11-26T05:55:39.345Z,0.00
2017-11-26T05:56:39.345Z,0.00
2017-11-26T05:57:39.349Z,0.00
2017-11-26T05:58:39.357Z,0.00
2017-11-26T05:59:39.353Z,0.00
2017-11-26T06:00:39.356Z,0.00
2017-11-26T06:01:39.358Z,0.00
2017-11-26T06:02:39.361Z,0.00
2017-11-26T06:03:39.364Z,0.00
2017-11-26T06:04:39.368Z,0.00
2017-11-26T06:05:39.369Z,0.00
2017-11-26T06:06:39.373Z,0.00
2017-11-26T06:07:39.375Z,0.00
2017-11-26T06:08:39.377Z,0.00
2017-11-26T06:09:39.380Z,0.00
2017-11-26T06:10:39.382Z,0.00
2017-11-26T06:11:39.386Z,0.00
2017-11-26T06:12:39.389Z,0.00
2017-11-26T06:13:39.390Z,0.00
2017-11-26T06:14:39.393Z,0.00
2017-11-26T06:15:39.397Z,0.00
2017-11-26T06:16:39.408Z,0.00
2017-11-26T06:17:39.402Z,0.00
2017-11-26T06:18:39.405Z,0.00
2017-11-26T06:19:39.407Z,0.00
2017-11-26T06:20:39.411Z,0.00
2017-11-26T06:21:39.412Z,0.00
2017-11-26T06:22:39.417Z,0.00
2017-11-26T06:23:39.419Z,0.00
2017-11-26T06:24:39.428Z,0.00
2017-11-26T06:25:39.424Z,0.00
2017-11-26T06:26:39.428Z,0.00
2017-11-26T06:27:39.429Z,0.00
2017-11-26T06:28:39.433Z,0.00
2017-11-26T06:29:39.434Z,0.00
2017-11-26T06:30:39.438Z,0.00
2017-11-26T06:31:39.447Z,0.00
2017-11-26T06:32:39.445Z,0.00
2017-11-26T06:33:39.445Z,0.00
2017-11-26T06:34:39.449Z,4.00
2017-11-26T06:35:39.453Z,4.00
2017-11-26T06:36:39.454Z,4.00
2017-11-26T06:37:39.461Z,0.00
2017-11-26T06:38:39.459Z,4.00
2017-11-26T06:39:39.463Z,4.00
2017-11-26T06:40:39.465Z,4.00
2017-11-26T06:41:39.475Z,8.00
2017-11-26T06:42:39.470Z,8.00
2017-11-26T06:43:39.474Z,4.00
2017-11-26T06:44:39.476Z,4.00
2017-11-26T06:45:39.478Z,8.00
2017-11-26T06:46:39.481Z,12.00
2017-11-26T06:47:39.489Z,8.00
2017-11-26T06:48:39.489Z,12.00
2017-11-26T06:49:39.490Z,12.00
2017-11-26T06:50:39.503Z,16.00
2017-11-26T06:51:39.496Z,16.00
2017-11-26T06:52:39.500Z,16.00
2017-11-26T06:53:39.500Z,20.00
2017-11-26T06:54:39.510Z,20.00
2017-11-26T06:55:39.507Z,20.00
2017-11-26T06:56:39.509Z,20.00
2017-11-26T06:57:39.512Z,24.00
2017-11-26T06:58:39.515Z,24.00
2017-11-26T06:59:39.517Z,28.00
2017-11-26T07:00:39.522Z,24.00
2017-11-26T07:01:39.521Z,28.00
2017-11-26T07:02:39.525Z,24.00
2017-11-26T07:03:39.529Z,24.00
2017-11-26T07:04:39.532Z,24.00
2017-11-26T07:05:39.534Z,28.00
2017-11-26T07:06:39.542Z,28.00
2017-11-26T07:07:39.545Z,32.00
2017-11-26T07:08:39.546Z,36.00
2017-11-26T07:09:39.549Z,36.00
2017-11-26T07:10:39.548Z,40.00
2017-11-26T07:11:39.552Z,44.00
2017-11-26T07:12:39.554Z,44.00
2017-11-26T07:13:39.556Z,48.00
2017-11-26T07:14:39.559Z,48.00
2017-11-26T07:15:39.563Z,52.00
2017-11-26T07:16:39.565Z,56.00
2017-11-26T07:17:39.568Z,56.00
2017-11-26T07:18:39.570Z,56.00
2017-11-26T07:19:39.572Z,60.00
2017-11-26T07:20:39.576Z,60.00
2017-11-26T07:21:39.578Z,60.00
2017-11-26T07:22:39.589Z,64.00
2017-11-26T07:23:39.584Z,60.00
2017-11-26T07:24:39.587Z,56.00
2017-11-26T07:25:39.590Z,48.00
2017-11-26T07:26:39.591Z,48.00
2017-11-26T07:27:39.596Z,48.00
2017-11-26T07:28:39.601Z,44.00
2017-11-26T07:29:39.600Z,44.00
2017-11-26T07:30:39.603Z,44.00
2017-11-26T07:31:39.607Z,44.00
2017-11-26T07:32:39.609Z,48.00
2017-11-26T07:33:39.611Z,56.00
2017-11-26T07:34:39.616Z,60.00
2017-11-26T07:35:39.618Z,72.00
2017-11-26T07:36:39.630Z,80.00
2017-11-26T07:37:39.627Z,96.00
2017-11-26T07:38:39.629Z,104.00
2017-11-26T07:39:39.628Z,96.00
2017-11-26T07:40:39.631Z,96.00
2017-11-26T07:41:39.634Z,96.00
2017-11-26T07:42:39.637Z,100.00
2017-11-26T07:43:39.646Z,108.00
2017-11-26T07:44:39.643Z,108.00
2017-11-26T07:45:39.646Z,112.00
2017-11-26T07:46:39.649Z,112.00
2017-11-26T07:47:39.652Z,116.00
2017-11-26T07:48:39.655Z,120.00
2017-11-26T07:49:39.656Z,124.00
2017-11-26T07:50:39.666Z,128.00
2017-11-26T07:51:39.664Z,128.00
2017-11-26T07:52:39.666Z,132.00
2017-11-26T07:53:39.669Z,124.00
2017-11-26T07:54:39.670Z,120.00
2017-11-26T07:55:39.674Z,120.00
2017-11-26T07:56:39.677Z,120.00
2017-11-26T07:57:39.689Z,116.00
2017-11-26T07:58:39.682Z,116.00
2017-11-26T07:59:39.685Z,124.00
2017-11-26T08:00:39.690Z,128.00
2017-11-26T08:01:39.692Z,132.00
2017-11-26T08:02:39.693Z,132.00
2017-11-26T08:03:39.697Z,128.00
2017-11-26T08:04:39.707Z,132.00
2017-11-26T08:05:39.709Z,136.00
2017-11-26T08:06:39.708Z,140.00
2017-11-26T08:07:39.715Z,144.00
2017-11-26T08:08:39.712Z,148.00
2017-11-26T08:09:39.713Z,156.00
2017-11-26T08:10:39.717Z,156.00
2017-11-26T08:11:39.720Z,160.00
2017-11-26T08:12:39.724Z,164.00
2017-11-26T08:13:39.725Z,168.00
2017-11-26T08:14:39.727Z,176.00
2017-11-26T08:15:39.732Z,180.00
2017-11-26T08:16:39.740Z,168.00
2017-11-26T08:17:39.737Z,160.00
2017-11-26T08:18:39.739Z,164.00
2017-11-26T08:19:39.741Z,168.00
2017-11-26T08:20:39.746Z,172.00
2017-11-26T08:21:39.748Z,176.00
2017-11-26T08:22:39.752Z,172.00
2017-11-26T08:23:39.754Z,164.00
2017-11-26T08:24:39.758Z,152.00
2017-11-26T08:25:39.759Z,140.00
2017-11-26T08:26:39.763Z,140.00
2017-11-26T08:27:39.764Z,144.00
2017-11-26T08:28:39.769Z,148.00
2017-11-26T08:29:39.770Z,144.00
2017-11-26T08:30:39.773Z,152.00
2017-11-26T08:31:39.781Z,148.00
2017-11-26T08:32:39.779Z,144.00
2017-11-26T08:33:39.783Z,152.00
2017-11-26T08:34:39.785Z,156.00
2017-11-26T08:35:39.788Z,160.00
2017-11-26T08:36:39.792Z,160.00
2017-11-26T08:37:39.795Z,164.00
2017-11-26T08:38:39.796Z,164.00
2017-11-26T08:39:39.800Z,172.00
2017-11-26T08:40:39.803Z,184.00
2017-11-26T08:41:39.805Z,192.00
2017-11-26T08:42:39.809Z,192.00
2017-11-26T08:43:39.813Z,192.00
2017-11-26T08:44:39.816Z,196.00
2017-11-26T08:45:39.816Z,200.00
2017-11-26T08:46:39.818Z,196.00
2017-11-26T08:47:39.823Z,196.00
2017-11-26T08:48:39.825Z,192.00
2017-11-26T08:49:39.829Z,192.00
2017-11-26T08:50:39.831Z,188.00
2017-11-26T08:51:39.832Z,184.00
2017-11-26T08:52:39.838Z,184.00
2017-11-26T08:53:39.840Z,184.00
2017-11-26T08:54:39.843Z,184.00
2017-11-26T08:55:39.848Z,180.00
2017-11-26T08:56:39.848Z,180.00
2017-11-26T08:57:39.852Z,180.00
2017-11-26T08:58:39.854Z,176.00
2017-11-26T08:59:39.856Z,172.00
2017-11-26T09:00:39.860Z,168.00
2017-11-26T09:01:39.863Z,164.00
2017-11-26T09:02:40.080Z,156.00
2017-11-26T09:03:39.871Z,152.00
2017-11-26T09:04:39.872Z,156.00
2017-11-26T09:05:39.874Z,152.00
2017-11-26T09:06:39.883Z,152.00
2017-11-26T09:07:39.881Z,152.00
2017-11-26T09:08:39.885Z,148.00
2017-11-26T09:09:39.887Z,148.00
2017-11-26T09:10:39.891Z,152.00
2017-11-26T09:11:39.892Z,156.00
2017-11-26T09:12:39.897Z,164.00
2017-11-26T09:13:39.901Z,168.00
2017-11-26T09:14:39.901Z,168.00
2017-11-26T09:15:39.904Z,172.00
2017-11-26T09:16:39.908Z,176.00
2017-11-26T09:17:39.912Z,184.00
2017-11-26T09:18:39.912Z,184.00
2017-11-26T09:19:39.917Z,184.00
2017-11-26T09:20:39.919Z,184.00
2017-11-26T09:21:39.922Z,184.00
2017-11-26T09:22:39.925Z,180.00
2017-11-26T09:23:39.928Z,176.00
2017-11-26T09:24:39.931Z,176.00
2017-11-26T09:25:39.933Z,176.00
2017-11-26T09:26:39.937Z,172.00
2017-11-26T09:27:39.940Z,172.00
2017-11-26T09:28:39.944Z,168.00
2017-11-26T09:29:39.944Z,168.00
2017-11-26T09:30:39.947Z,172.00
2017-11-26T09:31:39.954Z,172.00
2017-11-26T09:32:39.955Z,172.00
2017-11-26T09:33:39.956Z,168.00
2017-11-26T09:34:39.962Z,156.00
2017-11-26T09:35:39.975Z,160.00
2017-11-26T09:36:39.964Z,168.00
2017-11-26T09:37:39.972Z,180.00
2017-11-26T09:38:39.973Z,180.00
2017-11-26T09:39:39.974Z,176.00
2017-11-26T09:40:39.977Z,172.00
2017-11-26T09:41:39.982Z,172.00
2017-11-26T09:42:39.983Z,160.00
2017-11-26T09:43:39.994Z,160.00
2017-11-26T09:44:39.991Z,164.00
2017-11-26T09:45:39.993Z,168.00
2017-11-26T09:46:39.996Z,164.00
2017-11-26T09:47:40.000Z,168.00
2017-11-26T09:48:40.010Z,176.00
2017-11-26T09:49:40.009Z,176.00
2017-11-26T09:50:40.012Z,172.00
2017-11-26T09:51:40.015Z,164.00
2017-11-26T09:52:40.017Z,156.00
2017-11-26T09:53:40.021Z,160.00
2017-11-26T09:54:40.020Z,160.00
2017-11-26T09:55:40.022Z,164.00
2017-11-26T09:56:40.026Z,168.00
2017-11-26T09:57:40.030Z,176.00
2017-11-26T09:58:40.030Z,184.00
2017-11-26T09:59:40.035Z,200.00
2017-11-26T10:00:40.039Z,216.00
2017-11-26T10:01:40.044Z,232.00
2017-11-26T10:02:40.043Z,224.00
2017-11-26T10:03:40.049Z,220.00
2017-11-26T10:04:40.050Z,220.00
2017-11-26T10:05:40.056Z,216.00
2017-11-26T10:06:40.061Z,208.00
2017-11-26T10:07:40.058Z,196.00
2017-11-26T10:08:40.063Z,184.00
2017-11-26T10:09:40.065Z,168.00
2017-11-26T10:10:40.067Z,160.00
2017-11-26T10:11:40.073Z,148.00
2017-11-26T10:12:40.074Z,140.00
2017-11-26T10:13:40.085Z,140.00
2017-11-26T10:14:40.083Z,148.00
2017-11-26T10:15:40.083Z,152.00
2017-11-26T10:16:40.086Z,156.00
2017-11-26T10:17:40.088Z,164.00
2017-11-26T10:18:40.092Z,168.00
2017-11-26T10:19:40.094Z,176.00
2017-11-26T10:20:40.098Z,180.00
2017-11-26T10:21:40.101Z,184.00
2017-11-26T10:22:40.103Z,188.00
2017-11-26T10:23:40.107Z,196.00
2017-11-26T10:24:40.110Z,200.00
2017-11-26T10:25:40.112Z,200.00
2017-11-26T10:26:40.116Z,200.00
2017-11-26T10:27:40.123Z,200.00
2017-11-26T10:28:40.120Z,200.00
2017-11-26T10:29:40.125Z,196.00
2017-11-26T10:30:40.128Z,196.00
2017-11-26T10:31:40.135Z,192.00
2017-11-26T10:32:40.135Z,180.00
2017-11-26T10:33:40.137Z,168.00
2017-11-26T10:34:40.142Z,156.00
2017-11-26T10:35:40.144Z,152.00
2017-11-26T10:36:40.147Z,156.00
2017-11-26T10:37:40.150Z,156.00
2017-11-26T10:38:40.161Z,148.00
2017-11-26T10:39:40.158Z,132.00
2017-11-26T10:40:40.159Z,120.00
2017-11-26T10:41:40.165Z,108.00
2017-11-26T10:42:40.165Z,96.00
2017-11-26T10:43:40.167Z,84.00
2017-11-26T10:44:40.172Z,76.00
2017-11-26T10:45:40.174Z,80.00
2017-11-26T10:46:40.179Z,100.00
2017-11-26T10:47:40.185Z,112.00
2017-11-26T10:48:40.186Z,120.00
2017-11-26T10:49:40.188Z,136.00
2017-11-26T10:50:40.195Z,144.00
2017-11-26T10:51:40.196Z,156.00
2017-11-26T10:52:40.198Z,156.00
2017-11-26T10:53:40.202Z,164.00
2017-11-26T10:54:40.204Z,176.00
2017-11-26T10:55:40.206Z,184.00
2017-11-26T10:56:40.212Z,184.00
2017-11-26T10:57:40.210Z,184.00
2017-11-26T10:58:40.214Z,192.00
2017-11-26T10:59:40.217Z,164.00
2017-11-26T11:00:40.220Z,148.00
2017-11-26T11:01:40.222Z,124.00
2017-11-26T11:02:40.226Z,124.00
2017-11-26T11:03:40.238Z,128.00
2017-11-26T11:04:40.240Z,112.00
2017-11-26T11:05:40.242Z,100.00
2017-11-26T11:06:40.242Z,92.00
2017-11-26T11:07:40.244Z,88.00
2017-11-26T11:08:40.245Z,84.00
2017-11-26T11:09:40.248Z,96.00
2017-11-26T11:10:40.252Z,100.00
2017-11-26T11:11:40.253Z,96.00
2017-11-26T11:12:40.259Z,104.00
2017-11-26T11:13:40.260Z,116.00
2017-11-26T11:14:40.273Z,120.00
2017-11-26T11:15:40.265Z,116.00
2017-11-26T11:16:40.269Z,124.00
2017-11-26T11:17:40.271Z,120.00
2017-11-26T11:18:40.274Z,128.00
2017-11-26T11:19:40.279Z,120.00
2017-11-26T11:20:40.282Z,104.00
2017-11-26T11:21:40.284Z,104.00
2017-11-26T11:22:40.288Z,96.00
2017-11-26T11:23:40.291Z,84.00
2017-11-26T11:24:40.295Z,76.00
2017-11-26T11:25:40.297Z,76.00
2017-11-26T11:26:40.300Z,84.00
2017-11-26T11:27:40.307Z,92.00
2017-11-26T11:28:40.313Z,100.00
2017-11-26T11:29:40.313Z,92.00
2017-11-26T11:30:40.314Z,84.00
2017-11-26T11:31:40.315Z,88.00
2017-11-26T11:32:40.319Z,88.00
2017-11-26T11:33:40.321Z,88.00
2017-11-26T11:34:40.324Z,88.00
2017-11-26T11:35:40.328Z,92.00
2017-11-26T11:36:40.330Z,104.00
2017-11-26T11:37:40.334Z,104.00
2017-11-26T11:38:40.336Z,88.00
2017-11-26T11:39:40.340Z,76.00
2017-11-26T11:40:40.343Z,76.00
2017-11-26T11:41:40.345Z,80.00
2017-11-26T11:42:40.349Z,84.00
2017-11-26T11:43:40.353Z,92.00
2017-11-26T11:44:40.362Z,92.00
2017-11-26T11:45:40.358Z,96.00
2017-11-26T11:46:40.361Z,80.00
2017-11-26T11:47:40.364Z,84.00
2017-11-26T11:48:40.369Z,104.00
2017-11-26T11:49:40.372Z,112.00
2017-11-26T11:50:40.373Z,132.00
2017-11-26T11:51:40.377Z,144.00
2017-11-26T11:52:40.380Z,168.00
2017-11-26T11:53:40.381Z,188.00
2017-11-26T11:54:40.386Z,204.00
2017-11-26T11:55:40.390Z,208.00
2017-11-26T11:56:40.396Z,220.00
2017-11-26T11:57:40.399Z,216.00
2017-11-26T11:58:40.398Z,212.00
2017-11-26T11:59:40.403Z,196.00
2017-11-26T12:00:40.405Z,208.00
2017-11-26T12:01:40.444Z,232.00
2017-11-26T12:02:40.413Z,256.00
2017-11-26T12:03:40.414Z,292.00
2017-11-26T12:04:40.423Z,304.00
2017-11-26T12:05:40.427Z,316.00
2017-11-26T12:06:40.425Z,308.00
2017-11-26T12:07:40.426Z,288.00
2017-11-26T12:08:40.429Z,308.00
2017-11-26T12:09:40.432Z,280.00
2017-11-26T12:10:40.436Z,256.00
2017-11-26T12:11:40.435Z,200.00
2017-11-26T12:12:40.441Z,156.00
2017-11-26T12:13:40.445Z,136.00
2017-11-26T12:14:40.449Z,128.00
2017-11-26T12:15:40.451Z,100.00
2017-11-26T12:16:40.453Z,88.00
2017-11-26T12:17:40.481Z,76.00
2017-11-26T12:18:40.465Z,76.00
2017-11-26T12:19:40.463Z,72.00
2017-11-26T12:20:40.467Z,72.00
2017-11-26T12:21:40.469Z,96.00
2017-11-26T12:22:40.473Z,108.00
2017-11-26T12:23:40.475Z,92.00
2017-11-26T12:24:40.500Z,100.00
2017-11-26T12:25:40.497Z,108.00
2017-11-26T12:26:40.485Z,120.00
2017-11-26T12:27:40.488Z,124.00
2017-11-26T12:28:40.492Z,92.00
2017-11-26T12:29:40.493Z,72.00
2017-11-26T12:30:40.500Z,68.00
2017-11-26T12:31:40.499Z,72.00
2017-11-26T12:32:40.504Z,76.00
2017-11-26T12:33:40.508Z,68.00
2017-11-26T12:34:40.510Z,44.00
2017-11-26T12:35:40.514Z,32.00
2017-11-26T12:36:40.522Z,28.00
2017-11-26T12:37:40.519Z,28.00
2017-11-26T12:38:40.523Z,24.00
2017-11-26T12:39:40.528Z,24.00
2017-11-26T12:40:40.530Z,20.00
2017-11-26T12:41:40.532Z,28.00
2017-11-26T12:42:40.535Z,28.00
2017-11-26T12:43:40.539Z,28.00
2017-11-26T12:44:40.543Z,32.00
2017-11-26T12:45:40.544Z,32.00
2017-11-26T12:46:40.551Z,44.00
2017-11-26T12:47:40.550Z,68.00
2017-11-26T12:48:40.554Z,104.00
2017-11-26T12:49:40.557Z,148.00
2017-11-26T12:50:40.561Z,184.00
2017-11-26T12:51:40.564Z,196.00
2017-11-26T12:52:40.567Z,192.00
2017-11-26T12:53:40.568Z,188.00
2017-11-26T12:54:40.576Z,224.00
2017-11-26T12:55:40.577Z,212.00
2017-11-26T12:56:40.582Z,196.00
2017-11-26T12:57:40.582Z,212.00